Time;durP1;ratioP1;P1;durP2;ratioP2;P2;SDS_P1;SDS_P2;PMS_P1;PMS_P2;Temp;Humidity;BMP_temperature;BMP_pressure;BME280_temperature;BME280_humidity;BME280_pressure;Samples;Min_cycle;Max_cycle;Signal;HPM_P1;HPM_P2
2023/01/23 00:01:25;;;;;;;4.23;1.23;;;22.80;72.40;;;;;;5052855;28;20211;-70
2023/01/23 00:03:56;;;;;;;2.27;0.90;;;22.80;72.10;;;;;;5053808;28;20613;-70
2023/01/23 00:06:24;;;;;;;5.70;1.23;;;22.80;71.40;;;;;;5052422;28;20192;-71
2023/01/23 00:08:52;;;;;;;3.00;1.30;;;22.80;70.80;;;;;;5052347;28;20191;-71
2023/01/23 00:11:22;;;;;;;2.10;1.00;;;22.90;71.00;;;;;;5052162;28;20180;-69
2023/01/23 00:13:50;;;;;;;2.07;0.83;;;22.90;70.70;;;;;;5053289;28;20180;-72
2023/01/23 00:16:20;;;;;;;3.57;1.10;;;23.00;68.90;;;;;;5052691;28;20188;-70
2023/01/23 00:18:49;;;;;;;3.00;0.70;;;23.10;68.90;;;;;;5049912;28;20183;-70
2023/01/23 00:21:19;;;;;;;3.47;1.00;;;23.30;68.20;;;;;;5050948;28;20184;-70
2023/01/23 00:23:49;;;;;;;4.10;1.17;;;23.40;68.10;;;;;;5048739;28;20295;-72
2023/01/23 00:26:20;;;;;;;4.90;2.97;;;23.50;68.60;;;;;;5053005;28;20223;-71
2023/01/23 00:28:48;;;;;;;5.03;1.70;;;23.70;68.40;;;;;;5048766;28;20179;-68
2023/01/23 00:31:19;;;;;;;3.47;1.27;;;23.70;68.40;;;;;;5051233;28;20206;-71
2023/01/23 00:33:46;;;;;;;5.10;1.33;;;23.80;68.60;;;;;;5052204;28;20180;-72
2023/01/23 00:36:14;;;;;;;3.70;1.10;;;23.70;68.10;;;;;;5051812;28;20183;-68
2023/01/23 00:38:42;;;;;;;6.07;2.20;;;23.50;68.90;;;;;;5050361;28;20183;-69
2023/01/23 00:41:09;;;;;;;3.90;1.47;;;23.30;69.30;;;;;;5051548;28;20211;-70
2023/01/23 00:43:37;;;;;;;4.50;1.60;;;23.40;69.10;;;;;;5054173;28;20267;-69
2023/01/23 00:46:04;;;;;;;4.53;1.20;;;23.30;69.00;;;;;;5047305;28;20205;-71
2023/01/23 00:48:32;;;;;;;3.80;1.57;;;23.20;69.10;;;;;;5053338;28;20203;-71
2023/01/23 00:50:59;;;;;;;4.87;1.10;;;23.20;70.10;;;;;;5046825;28;20581;-69
2023/01/23 00:53:26;;;;;;;5.33;1.73;;;23.00;70.00;;;;;;5050255;28;20593;-73
2023/01/23 00:55:54;;;;;;;8.97;1.83;;;23.00;70.10;;;;;;5049987;28;20545;-71
2023/01/23 00:58:21;;;;;;;5.27;1.47;;;23.10;70.90;;;;;;5050417;28;20716;-72
2023/01/23 01:00:49;;;;;;;10.77;2.53;;;23.20;70.70;;;;;;5050857;28;20544;-71
2023/01/23 01:03:16;;;;;;;6.07;2.23;;;23.20;70.50;;;;;;5052010;28;20179;-72
2023/01/23 01:05:43;;;;;;;5.57;1.30;;;23.20;70.60;;;;;;5052549;28;20233;-71
2023/01/23 01:08:11;;;;;;;6.13;1.20;;;23.30;69.80;;;;;;5049160;28;20179;-71
2023/01/23 01:10:42;;;;;;;3.53;0.97;;;23.30;69.70;;;;;;5051699;28;20184;-71
2023/01/23 01:13:10;;;;;;;4.13;1.00;;;23.30;69.40;;;;;;5051329;28;20310;-70
2023/01/23 01:15:38;;;;;;;2.63;0.90;;;23.30;69.80;;;;;;5051530;28;20190;-72
2023/01/23 01:18:05;;;;;;;4.60;1.27;;;23.30;69.50;;;;;;5050574;28;20315;-72
2023/01/23 01:20:33;;;;;;;3.27;0.97;;;23.30;70.00;;;;;;5048629;28;20188;-71
2023/01/23 01:23:00;;;;;;;3.33;1.03;;;23.10;70.40;;;;;;5053576;28;20179;-70
2023/01/23 01:25:29;;;;;;;4.13;1.20;;;23.10;70.90;;;;;;5050434;28;20207;-72
2023/01/23 01:27:56;;;;;;;5.17;1.30;;;22.90;69.90;;;;;;5052660;28;20182;-72
2023/01/23 01:30:28;;;;;;;6.00;1.43;;;22.90;70.40;;;;;;5052932;28;20182;-72
2023/01/23 01:32:56;;;;;;;4.57;1.40;;;22.80;70.90;;;;;;5049941;28;20635;-72
2023/01/23 01:35:24;;;;;;;3.77;1.00;;;22.80;70.10;;;;;;5050965;28;20187;-71
2023/01/23 01:37:51;;;;;;;4.10;1.50;;;22.80;70.50;;;;;;5049501;28;20746;-72
2023/01/23 01:40:23;;;;;;;7.07;1.40;;;22.80;71.00;;;;;;5050142;28;20179;-69
2023/01/23 01:42:54;;;;;;;4.67;1.57;;;22.80;70.90;;;;;;5050705;28;20183;-73
2023/01/23 01:45:58;;;;;;;5.37;1.30;;;22.80;71.00;;;;;;5050837;28;20273;-72
2023/01/23 01:48:30;;;;;;;3.10;1.37;;;22.80;70.80;;;;;;5051000;28;20192;-72
2023/01/23 01:51:00;;;;;;;3.70;1.20;;;22.80;70.50;;;;;;5048270;28;20208;-71
2023/01/23 01:53:30;;;;;;;5.27;1.10;;;22.90;70.50;;;;;;5050226;28;20208;-73
2023/01/23 01:55:58;;;;;;;5.17;1.30;;;22.90;70.00;;;;;;5047604;28;20180;-72
2023/01/23 01:58:26;;;;;;;3.23;1.30;;;22.90;69.90;;;;;;5050708;28;20183;-73
2023/01/23 02:00:55;;;;;;;4.17;1.03;;;23.00;70.40;;;;;;5051169;28;20207;-72
2023/01/23 02:03:23;;;;;;;5.73;0.97;;;23.00;70.60;;;;;;5049824;28;20179;-73
2023/01/23 02:05:51;;;;;;;3.07;1.10;;;23.10;71.00;;;;;;5048875;28;20600;-70
2023/01/23 02:09:12;;;;;;;5.43;1.30;;;23.20;71.30;;;;;;5049513;28;20180;-72
2023/01/23 02:11:39;;;;;;;4.87;1.17;;;23.30;71.30;;;;;;5039334;28;20199;-71
2023/01/23 02:14:07;;;;;;;6.87;1.07;;;23.40;70.60;;;;;;5050584;28;20295;-73
2023/01/23 02:16:39;;;;;;;11.13;1.40;;;23.60;70.20;;;;;;5046486;28;20318;-72
2023/01/23 02:19:36;;;;;;;4.77;1.10;;;23.60;69.80;;;;;;5051276;28;20184;-71
2023/01/23 02:22:21;;;;;;;2.93;1.10;;;23.70;69.80;;;;;;5050560;28;20558;-70
2023/01/23 02:25:35;;;;;;;7.27;1.30;;;23.80;68.50;;;;;;5049928;28;20223;-72
2023/01/23 02:28:03;;;;;;;5.70;1.50;;;23.80;68.70;;;;;;5045100;28;20257;-71
2023/01/23 02:30:30;;;;;;;5.17;1.37;;;24.10;68.40;;;;;;5048427;28;20676;-71
2023/01/23 02:33:31;;;;;;;4.43;1.40;;;24.30;68.20;;;;;;5052922;28;20184;-70
2023/01/23 02:36:00;;;;;;;4.80;0.90;;;24.50;66.50;;;;;;5044953;28;20270;-68
2023/01/23 02:38:31;;;;;;;12.87;1.50;;;24.50;64.80;;;;;;5049722;28;20279;-71
2023/01/23 02:41:03;;;;;;;1.90;0.80;;;24.60;65.40;;;;;;5056344;28;20225;-70
2023/01/23 02:43:37;;;;;;;5.83;1.07;;;24.80;64.20;;;;;;5051315;28;20762;-71
2023/01/23 02:46:06;;;;;;;3.70;1.20;;;25.10;62.60;;;;;;5051933;28;20182;-70
2023/01/23 02:48:34;;;;;;;3.67;1.00;;;25.30;62.00;;;;;;5050726;28;20277;-69
2023/01/23 02:51:02;;;;;;;4.93;1.30;;;25.30;62.00;;;;;;5050253;28;20246;-69
2023/01/23 02:53:30;;;;;;;5.33;1.50;;;25.40;62.40;;;;;;5052194;28;20263;-71
2023/01/23 02:55:59;;;;;;;6.63;1.03;;;25.30;61.80;;;;;;5051401;28;20262;-71
2023/01/23 03:01:12;;;;;;;5.20;1.00;;;25.30;61.20;;;;;;5050097;28;20661;-71
2023/01/23 03:03:42;;;;;;;2.37;0.80;;;25.30;59.80;;;;;;5051340;28;20594;-71
2023/01/23 03:06:10;;;;;;;3.87;1.00;;;25.50;60.00;;;;;;5052529;28;20190;-71
2023/01/23 03:08:47;;;;;;;4.63;0.90;;;25.50;59.80;;;;;;5051085;28;20180;-69
2023/01/23 03:11:18;;;;;;;4.23;1.10;;;25.50;60.00;;;;;;5049689;28;20172;-68
2023/01/23 03:13:47;;;;;;;3.20;0.80;;;25.40;58.80;;;;;;5046577;28;20172;-69
2023/01/23 03:16:14;;;;;;;5.33;1.13;;;25.30;60.10;;;;;;5047642;28;20203;-71
2023/01/23 03:18:42;;;;;;;1.60;0.90;;;25.50;59.40;;;;;;5049037;28;20621;-71
2023/01/23 03:21:09;;;;;;;3.13;0.83;;;25.50;58.00;;;;;;5049230;28;20176;-69
2023/01/23 03:23:40;;;;;;;2.63;0.87;;;25.80;58.00;;;;;;5049555;28;20176;-71
2023/01/23 03:26:07;;;;;;;3.67;1.23;;;25.80;57.80;;;;;;5048866;28;20208;-68
2023/01/23 03:31:20;;;;;;;6.50;1.17;;;26.10;57.70;;;;;;5048705;28;20723;-69
2023/01/23 03:33:47;;;;;;;5.10;1.37;;;25.90;57.90;;;;;;5046992;28;20190;-70
2023/01/23 03:36:15;;;;;;;3.37;0.80;;;26.30;55.80;;;;;;5048839;28;20192;-70
2023/01/23 03:41:23;;;;;;;4.13;1.00;;;26.70;55.90;;;;;;5049363;28;20283;-71
2023/01/23 03:41:29;;;;;;;3.93;1.23;;;27.20;54.80;;;;;;5050025;28;20194;-72
2023/01/23 03:43:57;;;;;;;4.83;1.20;;;27.00;54.40;;;;;;5052849;28;20203;-71
2023/01/23 03:46:24;;;;;;;4.73;1.07;;;27.30;53.60;;;;;;5045610;28;20800;-69
2023/01/23 03:48:52;;;;;;;2.73;0.77;;;27.10;53.70;;;;;;5052928;28;20175;-69
2023/01/23 03:51:19;;;;;;;4.60;0.80;;;27.30;50.80;;;;;;5051304;28;20220;-70
2023/01/23 03:53:46;;;;;;;1.80;0.50;;;27.50;49.80;;;;;;5052607;28;20269;-69
2023/01/23 03:56:14;;;;;;;1.33;0.43;;;27.70;45.90;;;;;;5053246;28;20180;-67
2023/01/23 03:58:41;;;;;;;2.13;0.50;;;27.70;47.40;;;;;;5050888;28;20190;-68
2023/01/23 04:01:12;;;;;;;3.03;0.70;;;28.00;47.40;;;;;;5052518;28;20296;-68
2023/01/23 04:03:39;;;;;;;4.73;1.00;;;28.30;47.80;;;;;;5052234;28;20188;-69
2023/01/23 04:06:07;;;;;;;3.67;1.00;;;28.40;48.60;;;;;;5052432;28;20242;-68
2023/01/23 04:08:34;;;;;;;3.13;1.10;;;28.60;49.30;;;;;;5049423;28;20267;-68
2023/01/23 04:11:07;;;;;;;5.13;1.00;;;27.90;50.30;;;;;;5052524;28;20180;-68
2023/01/23 04:13:35;;;;;;;4.67;0.90;;;28.20;48.80;;;;;;5050999;28;20202;-69
2023/01/23 04:16:04;;;;;;;1.60;0.70;;;28.40;48.60;;;;;;5052041;28;20263;-69
2023/01/23 04:18:31;;;;;;;4.60;1.17;;;28.50;49.30;;;;;;5053245;28;20184;-67
2023/01/23 04:20:59;;;;;;;1.40;0.60;;;28.60;48.40;;;;;;5053360;28;20259;-69
2023/01/23 04:23:26;;;;;;;1.50;0.63;;;28.60;47.90;;;;;;5051222;28;20209;-70
2023/01/23 04:25:54;;;;;;;6.90;1.00;;;28.90;47.70;;;;;;5052613;28;20230;-70
2023/01/23 04:28:21;;;;;;;3.17;0.93;;;29.10;47.30;;;;;;5051856;28;20620;-68
2023/01/23 04:30:50;;;;;;;2.80;0.80;;;29.20;47.00;;;;;;5053307;28;20267;-69
2023/01/23 04:33:19;;;;;;;1.50;0.47;;;29.20;44.60;;;;;;5052493;28;20526;-67
2023/01/23 04:35:52;;;;;;;1.97;0.60;;;29.00;45.00;;;;;;5053288;28;20190;-68
2023/01/23 04:38:19;;;;;;;2.77;0.83;;;29.00;46.30;;;;;;5046741;28;20184;-70
2023/01/23 04:40:47;;;;;;;5.50;0.80;;;29.70;47.30;;;;;;5051808;28;20176;-69
2023/01/23 04:43:14;;;;;;;4.18;1.00;;;29.80;46.90;;;;;;5051235;28;20188;-68
2023/01/23 04:45:45;;;;;;;4.67;0.97;;;29.80;46.00;;;;;;5053045;28;20262;-69
2023/01/23 04:48:13;;;;;;;5.28;1.25;;;29.90;46.90;;;;;;5049990;28;20184;-70
2023/01/23 04:50:40;;;;;;;4.47;0.90;;;29.20;47.70;;;;;;5050379;28;20180;-68
2023/01/23 04:53:08;;;;;;;4.83;1.10;;;28.80;48.00;;;;;;5049160;28;20188;-70
2023/01/23 04:55:35;;;;;;;3.33;0.93;;;28.30;51.90;;;;;;5051049;28;20188;-69
2023/01/23 04:58:03;;;;;;;8.97;1.40;;;28.60;52.60;;;;;;5051516;28;20630;-70
2023/01/23 05:00:30;;;;;;;5.10;1.00;;;28.60;52.50;;;;;;5049155;28;20590;-71
2023/01/23 05:02:58;;;;;;;4.70;1.33;;;28.80;51.00;;;;;;5051306;28;20187;-71
2023/01/23 05:05:26;;;;;;;4.67;1.43;;;29.30;50.60;;;;;;5051522;28;20759;-69
2023/01/23 05:07:53;;;;;;;7.07;2.17;;;29.90;50.20;;;;;;5053328;28;20264;-69
2023/01/23 05:10:20;;;;;;;4.68;1.20;;;30.60;49.00;;;;;;5051899;28;20889;-67
2023/01/23 05:12:48;;;;;;;3.55;1.23;;;30.30;48.90;;;;;;5052227;28;20229;-69
2023/01/23 05:15:16;;;;;;;3.97;1.05;;;30.30;47.60;;;;;;5049419;28;20246;-69
2023/01/23 05:17:43;;;;;;;5.25;1.58;;;29.90;47.10;;;;;;5051666;28;20176;-68
2023/01/23 05:20:11;;;;;;;3.25;0.95;;;30.20;48.00;;;;;;5051542;28;20191;-68
2023/01/23 05:22:50;;;;;;;6.10;1.42;;;30.50;47.30;;;;;;5051056;28;20187;-69
2023/01/23 05:25:28;;;;;;;2.97;1.02;;;30.90;46.70;;;;;;5051345;28;20215;-70
2023/01/23 05:27:55;;;;;;;8.20;1.42;;;30.70;46.80;;;;;;5051350;28;20530;-69
2023/01/23 05:30:23;;;;;;;7.35;1.30;;;30.10;48.30;;;;;;5051699;28;20645;-70
2023/01/23 05:32:50;;;;;;;3.40;1.25;;;29.90;47.90;;;;;;5049499;28;20210;-70
2023/01/23 05:35:18;;;;;;;5.70;1.10;;;29.90;48.40;;;;;;5050122;28;20230;-70
2023/01/23 05:37:50;;;;;;;5.95;1.25;;;30.00;48.70;;;;;;5051577;28;20184;-69
2023/01/23 05:40:18;;;;;;;5.35;1.17;;;30.60;46.70;;;;;;5051436;28;20215;-68
2023/01/23 05:42:46;;;;;;;4.90;1.05;;;30.70;45.60;;;;;;5049728;28;20199;-69
2023/01/23 05:45:14;;;;;;;5.97;1.50;;;30.60;46.00;;;;;;5051413;28;20731;-68
2023/01/23 05:47:41;;;;;;;3.38;1.30;;;30.70;46.00;;;;;;5046810;28;20176;-70
2023/01/23 05:50:14;;;;;;;4.72;1.23;;;30.80;45.80;;;;;;5050017;28;20187;-68
2023/01/23 05:52:42;;;;;;;2.20;1.00;;;30.10;46.30;;;;;;5053976;28;20215;-69
2023/01/23 05:55:09;;;;;;;2.92;0.80;;;29.40;48.50;;;;;;5052036;28;20176;-69
2023/01/23 05:57:37;;;;;;;4.90;1.00;;;29.40;47.10;;;;;;5052272;28;20685;-69
2023/01/23 06:00:06;;;;;;;5.90;1.00;;;29.80;46.40;;;;;;5051845;28;20180;-70
2023/01/23 06:02:34;;;;;;;1.95;0.93;;;30.10;44.80;;;;;;5051897;28;20180;-69
2023/01/23 06:05:01;;;;;;;4.60;1.08;;;30.20;46.00;;;;;;5051736;28;20285;-68
2023/01/23 06:07:29;;;;;;;4.95;1.25;;;30.70;45.20;;;;;;5050484;28;21003;-69
2023/01/23 06:09:56;;;;;;;4.05;0.85;;;29.40;47.70;;;;;;5051616;28;20192;-71
2023/01/23 06:12:24;;;;;;;3.97;1.10;;;28.50;50.80;;;;;;5051170;28;20512;-69
2023/01/23 06:14:51;;;;;;;4.40;1.20;;;27.70;53.90;;;;;;5051465;28;20191;-71
2023/01/23 06:17:18;;;;;;;3.47;1.10;;;28.30;53.10;;;;;;5050470;28;20207;-70
2023/01/23 06:19:47;;;;;;;4.60;1.27;;;29.30;50.20;;;;;;5049591;28;20190;-71
2023/01/23 06:22:14;;;;;;;5.73;1.03;;;29.70;48.80;;;;;;5049925;28;20188;-70
2023/01/23 06:24:41;;;;;;;4.60;1.00;;;28.50;51.50;;;;;;5046116;28;20250;-69
2023/01/23 06:27:09;;;;;;;3.97;1.17;;;27.60;54.80;;;;;;5050230;28;20172;-69
2023/01/23 06:29:37;;;;;;;2.90;0.80;;;26.80;57.20;;;;;;5048828;28;20265;-69
2023/01/23 06:32:05;;;;;;;5.50;1.00;;;26.20;57.20;;;;;;5050192;28;20209;-70
2023/01/23 06:34:32;;;;;;;4.37;0.90;;;25.70;56.30;;;;;;5048713;28;20191;-71
2023/01/23 06:36:59;;;;;;;2.50;1.00;;;25.60;57.00;;;;;;5047864;28;20179;-70
2023/01/23 06:39:29;;;;;;;3.93;0.90;;;25.90;57.80;;;;;;5044579;28;20180;-69
2023/01/23 06:41:57;;;;;;;4.47;0.97;;;26.10;57.40;;;;;;5049272;28;20187;-69
2023/01/23 06:44:24;;;;;;;4.97;0.90;;;25.90;58.10;;;;;;5050638;28;20228;-70
2023/01/23 06:46:53;;;;;;;7.37;1.60;;;25.50;59.30;;;;;;5049726;28;20192;-70
2023/01/23 06:49:20;;;;;;;3.37;1.13;;;25.30;60.80;;;;;;5048715;28;20194;-70
2023/01/23 06:51:47;;;;;;;5.37;1.20;;;25.30;61.40;;;;;;5049816;28;20239;-71
2023/01/23 06:54:15;;;;;;;5.83;1.20;;;25.20;61.80;;;;;;5049870;28;20187;-70
2023/01/23 06:56:42;;;;;;;4.93;1.23;;;25.20;62.50;;;;;;5050845;28;20238;-68
2023/01/23 06:59:09;;;;;;;5.23;1.10;;;26.30;59.30;;;;;;5048970;28;20179;-68
2023/01/23 07:01:37;;;;;;;6.73;1.40;;;25.80;59.70;;;;;;5049592;28;20263;-69
2023/01/23 07:04:04;;;;;;;5.80;1.53;;;25.60;61.00;;;;;;5050233;28;20271;-72
2023/01/23 07:06:31;;;;;;;6.27;1.30;;;25.60;60.90;;;;;;5049340;28;20598;-69
2023/01/23 07:08:59;;;;;;;5.03;1.40;;;25.60;62.20;;;;;;5049354;28;20209;-69
2023/01/23 07:11:26;;;;;;;5.67;1.50;;;25.90;61.10;;;;;;5049935;28;20196;-69
2023/01/23 07:13:54;;;;;;;5.30;1.13;;;27.30;56.30;;;;;;5048106;28;20180;-69
2023/01/23 07:16:21;;;;;;;3.97;1.07;;;28.30;52.20;;;;;;5051672;28;21410;-71
2023/01/23 07:18:48;;;;;;;4.90;1.23;;;28.30;53.20;;;;;;5053536;28;20275;-71
2023/01/23 07:21:16;;;;;;;5.03;1.37;;;26.90;56.60;;;;;;5053542;28;20630;-70
2023/01/23 07:23:43;;;;;;;5.80;1.20;;;27.00;57.10;;;;;;5052339;28;20184;-70
2023/01/23 07:26:11;;;;;;;3.97;1.20;;;27.90;54.40;;;;;;5053226;28;20192;-70
2023/01/23 07:28:39;;;;;;;4.00;1.10;;;28.60;52.00;;;;;;5051595;28;20571;-69
2023/01/23 07:31:06;;;;;;;5.13;1.60;;;29.00;51.70;;;;;;5052698;28;20180;-70
2023/01/23 07:33:34;;;;;;;4.93;1.03;;;28.80;51.60;;;;;;5053118;28;20176;-71
2023/01/23 07:36:04;;;;;;;6.67;1.30;;;28.60;52.70;;;;;;5052592;28;20271;-70
2023/01/23 07:38:32;;;;;;;6.13;0.93;;;28.30;53.40;;;;;;5050870;28;20187;-70
2023/01/23 07:41:00;;;;;;;4.50;1.17;;;27.70;55.00;;;;;;5051905;28;20666;-70
2023/01/23 07:43:27;;;;;;;4.27;0.93;;;27.10;55.60;;;;;;5053019;28;20184;-70
2023/01/23 07:45:58;;;;;;;6.27;1.70;;;26.80;56.20;;;;;;5051764;28;20677;-70
2023/01/23 07:48:28;;;;;;;3.43;1.20;;;26.80;56.20;;;;;;5052086;28;20190;-69
2023/01/23 07:50:55;;;;;;;4.83;1.33;;;26.50;57.10;;;;;;5052129;28;20222;-69
2023/01/23 07:53:22;;;;;;;2.37;0.70;;;25.90;58.80;;;;;;5053174;28;20199;-72
2023/01/23 07:55:50;;;;;;;2.80;0.90;;;25.10;62.20;;;;;;5053542;28;20639;-71
2023/01/23 07:58:17;;;;;;;6.57;1.33;;;24.80;63.80;;;;;;5052698;28;20188;-70
2023/01/23 08:00:44;;;;;;;7.00;1.40;;;24.70;64.80;;;;;;5050666;28;20705;-67
2023/01/23 08:03:12;;;;;;;5.40;0.97;;;24.60;66.30;;;;;;5050498;28;20589;-70
2023/01/23 08:05:39;;;;;;;9.93;1.20;;;24.80;66.50;;;;;;5053398;28;20218;-70
2023/01/23 08:08:07;;;;;;;6.03;1.40;;;24.80;66.00;;;;;;5052996;28;20184;-72
2023/01/23 08:10:35;;;;;;;8.17;1.47;;;24.60;66.00;;;;;;5053325;28;20643;-69
2023/01/23 08:13:02;;;;;;;6.33;1.00;;;24.50;66.10;;;;;;5053393;28;20632;-70
2023/01/23 08:15:30;;;;;;;3.30;1.00;;;24.30;67.00;;;;;;5051762;28;20210;-70
2023/01/23 08:17:57;;;;;;;8.10;1.20;;;24.30;67.30;;;;;;5052340;28;20617;-70
2023/01/23 08:20:24;;;;;;;5.97;1.20;;;24.00;68.30;;;;;;5052710;28;20674;-70
2023/01/23 08:22:52;;;;;;;6.23;1.30;;;24.20;68.50;;;;;;5051879;28;20180;-68
2023/01/23 08:25:19;;;;;;;7.77;1.47;;;24.10;69.70;;;;;;5051636;28;20286;-69
2023/01/23 08:27:47;;;;;;;7.77;1.10;;;24.00;69.80;;;;;;5053166;28;20267;-72
2023/01/23 08:30:14;;;;;;;4.53;1.60;;;23.70;69.60;;;;;;5051824;28;20187;-71
2023/01/23 08:32:45;;;;;;;7.30;1.20;;;23.70;69.80;;;;;;5052381;28;20188;-72
2023/01/23 08:35:12;;;;;;;4.73;1.20;;;23.60;69.80;;;;;;5053652;28;20634;-68
2023/01/23 08:37:41;;;;;;;4.93;1.33;;;23.60;69.70;;;;;;5049129;28;20298;-70
2023/01/23 08:40:09;;;;;;;4.23;1.30;;;23.60;69.80;;;;;;5047755;28;20209;-70
2023/01/23 08:42:37;;;;;;;2.53;1.30;;;23.60;69.40;;;;;;5052692;28;20218;-72
2023/01/23 08:45:05;;;;;;;4.80;1.40;;;23.60;68.50;;;;;;5050649;28;20223;-69
2023/01/23 08:47:35;;;;;;;4.50;1.33;;;23.80;68.00;;;;;;5053589;28;20180;-68
2023/01/23 08:50:06;;;;;;;6.80;1.20;;;23.80;68.00;;;;;;5052853;28;20188;-69
2023/01/23 08:52:34;;;;;;;4.70;1.30;;;23.60;68.80;;;;;;5056028;28;20269;-70
2023/01/23 08:55:01;;;;;;;7.50;1.10;;;23.40;69.50;;;;;;5050687;28;20184;-71
2023/01/23 08:57:28;;;;;;;3.60;1.27;;;23.30;70.20;;;;;;5056582;28;20183;-69
2023/01/23 08:59:56;;;;;;;4.03;1.10;;;23.20;70.60;;;;;;5053077;28;20187;-72
2023/01/23 09:02:23;;;;;;;3.20;0.97;;;23.10;70.70;;;;;;5053684;28;20565;-69
2023/01/23 09:04:51;;;;;;;3.73;1.13;;;22.90;70.70;;;;;;5055270;28;20223;-70
2023/01/23 09:07:18;;;;;;;4.40;1.00;;;22.90;70.50;;;;;;5054409;28;20184;-69
2023/01/23 09:09:45;;;;;;;4.47;1.20;;;22.90;70.70;;;;;;5055805;28;20179;-68
2023/01/23 09:12:13;;;;;;;4.63;1.37;;;22.80;71.10;;;;;;5066997;28;20206;-68
2023/01/23 09:14:40;;;;;;;4.80;1.23;;;22.80;71.40;;;;;;5054410;28;20179;-68
2023/01/23 09:17:07;;;;;;;6.27;1.37;;;22.80;71.30;;;;;;5053114;28;20187;-68
2023/01/23 09:19:35;;;;;;;3.63;1.30;;;22.70;71.40;;;;;;5052631;28;20229;-67
2023/01/23 09:22:02;;;;;;;3.87;1.33;;;22.70;71.50;;;;;;5049150;28;20324;-68
2023/01/23 09:24:30;;;;;;;5.30;1.17;;;22.70;71.80;;;;;;5049707;28;20277;-70
2023/01/23 09:26:57;;;;;;;5.17;1.27;;;22.60;72.10;;;;;;5051749;28;20184;-68
2023/01/23 09:29:25;;;;;;;2.57;1.10;;;22.60;72.40;;;;;;5051308;28;20187;-69
2023/01/23 09:31:52;;;;;;;5.23;1.20;;;22.50;72.80;;;;;;5050860;28;20192;-68
2023/01/23 09:34:19;;;;;;;6.23;1.60;;;22.50;72.80;;;;;;5049813;28;20572;-69
2023/01/23 09:36:47;;;;;;;7.50;1.27;;;22.50;73.10;;;;;;5046959;28;20184;-68
2023/01/23 09:39:14;;;;;;;5.00;1.00;;;22.40;73.10;;;;;;5051296;28;20186;-69
2023/01/23 09:41:44;;;;;;;4.13;1.10;;;22.30;73.10;;;;;;5043349;28;20555;-70
2023/01/23 09:44:40;;;;;;;4.40;1.23;;;22.30;73.00;;;;;;5049725;28;20212;-70
2023/01/23 09:47:18;;;;;;;5.20;1.03;;;22.30;73.70;;;;;;5047784;28;20239;-69
2023/01/23 09:50:02;;;;;;;7.77;1.30;;;22.30;74.10;;;;;;5051272;28;20649;-69
2023/01/23 09:52:40;;;;;;;6.83;1.37;;;22.30;73.90;;;;;;5049928;28;20726;-69
2023/01/23 09:55:16;;;;;;;3.57;1.37;;;22.20;74.00;;;;;;5050601;28;20217;-69
2023/01/23 09:57:54;;;;;;;8.17;1.60;;;22.20;74.30;;;;;;5053364;28;20190;-70
2023/01/23 10:00:28;;;;;;;6.73;1.50;;;22.20;74.20;;;;;;5049250;28;20654;-72
2023/01/23 10:02:57;;;;;;;5.60;1.40;;;22.20;74.50;;;;;;5051294;28;20213;-69
2023/01/23 10:05:45;;;;;;;8.27;1.30;;;22.20;74.80;;;;;;5050825;28;20262;-67
2023/01/23 10:09:13;;;;;;;4.37;1.10;;;22.10;75.00;;;;;;5048432;28;20176;-69
2023/01/23 10:12:05;;;;;;;6.23;1.50;;;22.00;75.20;;;;;;5005078;28;20184;-68
2023/01/23 10:14:54;;;;;;;9.77;2.00;;;22.00;75.50;;;;;;5050352;28;20184;-69
2023/01/23 10:17:36;;;;;;;2.70;1.20;;;22.00;75.50;;;;;;5048042;28;20180;-72
2023/01/23 10:20:27;;;;;;;5.63;1.60;;;22.00;75.90;;;;;;5051655;28;20188;-69
2023/01/23 10:23:12;;;;;;;7.93;1.63;;;22.00;76.00;;;;;;5050605;28;20179;-71
2023/01/23 10:25:40;;;;;;;9.90;1.67;;;22.00;76.20;;;;;;5049906;28;20693;-71
2023/01/23 10:28:26;;;;;;;10.63;2.07;;;22.00;76.40;;;;;;5051553;28;20226;-68
2023/01/23 10:31:02;;;;;;;6.30;1.53;;;21.90;76.60;;;;;;5053282;28;20211;-70
2023/01/23 10:33:44;;;;;;;4.30;1.77;;;21.90;77.20;;;;;;5051673;28;20255;-69
2023/01/23 10:36:18;;;;;;;6.50;1.73;;;21.90;77.20;;;;;;5050098;28;20176;-70
2023/01/23 10:39:09;;;;;;;11.30;1.97;;;21.80;77.40;;;;;;5048521;28;20218;-69
2023/01/23 10:41:38;;;;;;;5.13;1.47;;;21.80;77.80;;;;;;5042340;28;20259;-71
2023/01/23 10:44:19;;;;;;;6.00;1.60;;;21.80;77.90;;;;;;5051330;28;20191;-71
2023/01/23 10:46:55;;;;;;;6.60;1.70;;;21.70;78.10;;;;;;5050013;28;20250;-69
2023/01/23 10:49:35;;;;;;;6.10;1.80;;;21.70;78.20;;;;;;5052964;28;20856;-69
2023/01/23 10:52:03;;;;;;;8.63;1.50;;;21.70;78.20;;;;;;5054394;28;20272;-68
2023/01/23 10:54:43;;;;;;;8.40;1.40;;;21.60;78.10;;;;;;5051695;28;20187;-70
2023/01/23 10:57:14;;;;;;;8.47;1.70;;;21.70;78.00;;;;;;5053172;28;20180;-69
2023/01/23 10:59:56;;;;;;;8.77;1.37;;;21.70;77.70;;;;;;5055672;28;20190;-73
2023/01/23 11:02:31;;;;;;;3.53;1.10;;;21.70;77.80;;;;;;5055053;28;20796;-69
2023/01/23 11:04:59;;;;;;;8.60;1.53;;;21.70;77.80;;;;;;5055894;28;20297;-69
2023/01/23 11:07:39;;;;;;;5.03;1.30;;;21.60;77.80;;;;;;5054986;28;20188;-71
2023/01/23 11:10:17;;;;;;;7.33;1.10;;;21.60;78.00;;;;;;5053247;28;20270;-70
2023/01/23 11:12:50;;;;;;;5.40;1.33;;;21.60;78.20;;;;;;5051725;28;20208;-69
2023/01/23 11:15:27;;;;;;;6.60;1.30;;;21.50;78.40;;;;;;5053291;28;21111;-70
2023/01/23 11:18:00;;;;;;;3.97;1.17;;;21.50;78.60;;;;;;5053881;28;20258;-69
2023/01/23 11:20:38;;;;;;;9.70;1.67;;;21.50;78.80;;;;;;5054496;28;20192;-70
2023/01/23 11:23:09;;;;;;;6.80;1.57;;;21.40;79.10;;;;;;5053280;28;20187;-69
2023/01/23 11:25:46;;;;;;;11.73;1.30;;;21.30;79.20;;;;;;5055572;28;20249;-72
2023/01/23 11:28:36;;;;;;;5.03;1.20;;;21.30;79.30;;;;;;5058473;28;20675;-69
2023/01/23 11:31:16;;;;;;;9.37;1.50;;;21.30;79.60;;;;;;5057715;28;20730;-69
2023/01/23 11:34:00;;;;;;;7.63;1.73;;;21.30;79.70;;;;;;5053056;28;20184;-70
2023/01/23 11:37:11;;;;;;;8.70;1.53;;;21.30;79.70;;;;;;5055074;28;20180;-70
2023/01/23 11:39:57;;;;;;;8.53;1.30;;;21.30;79.70;;;;;;5056246;28;20180;-71
2023/01/23 11:42:27;;;;;;;7.33;1.30;;;21.30;79.70;;;;;;5055678;28;20708;-73
2023/01/23 11:44:57;;;;;;;2.57;1.10;;;21.30;79.80;;;;;;5054116;28;20207;-71
2023/01/23 11:47:49;;;;;;;11.97;1.33;;;21.20;79.90;;;;;;5054476;28;20259;-71
2023/01/23 11:50:19;;;;;;;6.80;1.40;;;21.20;80.20;;;;;;5054294;28;20234;-72
2023/01/23 11:53:15;;;;;;;6.70;1.20;;;21.20;80.40;;;;;;5055323;28;20320;-72
2023/01/23 11:56:07;;;;;;;3.30;1.10;;;21.10;80.50;;;;;;5053804;28;20230;-70
2023/01/23 11:59:01;;;;;;;8.73;1.27;;;21.10;80.60;;;;;;5060391;28;20263;-72
2023/01/23 12:01:57;;;;;;;7.20;1.53;;;21.10;80.80;;;;;;5053758;28;20767;-72
2023/01/23 12:04:45;;;;;;;5.93;1.13;;;21.10;81.10;;;;;;5045172;28;20717;-72
2023/01/23 12:07:23;;;;;;;4.20;1.10;;;21.00;81.20;;;;;;5050976;28;20272;-71
2023/01/23 12:10:09;;;;;;;5.00;1.40;;;21.00;81.60;;;;;;5052070;28;20696;-70
2023/01/23 12:13:09;;;;;;;9.23;1.77;;;20.90;81.90;;;;;;5049742;28;20698;-72
2023/01/23 12:16:02;;;;;;;5.57;1.60;;;21.00;82.40;;;;;;5055516;28;20589;-71
2023/01/23 12:18:29;;;;;;;5.37;1.37;;;20.90;82.20;;;;;;5048439;28;20238;-71
2023/01/23 12:21:01;;;;;;;9.00;1.67;;;21.00;82.30;;;;;;5059426;28;20191;-72
2023/01/23 12:23:36;;;;;;;5.87;1.40;;;21.00;82.40;;;;;;5054183;28;20665;-72
2023/01/23 12:26:12;;;;;;;7.63;1.40;;;21.00;82.10;;;;;;5050444;28;20703;-70
2023/01/23 12:29:04;;;;;;;8.30;1.70;;;21.10;82.10;;;;;;5054254;28;20167;-71
2023/01/23 12:31:47;;;;;;;4.10;1.30;;;21.10;82.00;;;;;;5046834;28;20188;-72
2023/01/23 12:34:20;;;;;;;4.50;1.33;;;21.10;82.00;;;;;;5053756;28;20653;-72
2023/01/23 12:36:56;;;;;;;5.07;1.53;;;21.20;82.00;;;;;;5055612;28;20253;-72
2023/01/23 12:39:35;;;;;;;6.73;1.70;;;21.10;81.90;;;;;;5054700;28;20634;-71
2023/01/23 12:42:11;;;;;;;6.97;1.57;;;21.10;82.00;;;;;;5050353;28;20188;-71
2023/01/23 12:45:03;;;;;;;6.97;1.90;;;21.00;81.90;;;;;;5054956;28;20207;-70
2023/01/23 12:47:42;;;;;;;7.37;1.67;;;20.90;82.10;;;;;;5047534;28;20261;-71
2023/01/23 12:50:29;;;;;;;7.10;1.50;;;20.90;82.50;;;;;;5053878;28;20184;-71
2023/01/23 12:53:04;;;;;;;5.03;1.10;;;20.90;82.80;;;;;;5050638;28;20191;-69
2023/01/23 12:55:50;;;;;;;8.73;1.93;;;20.80;83.00;;;;;;5050581;28;20175;-71
2023/01/23 12:58:19;;;;;;;9.37;1.60;;;20.80;83.20;;;;;;5053413;28;20191;-71
2023/01/23 13:00:52;;;;;;;6.67;1.90;;;20.80;83.20;;;;;;5053897;28;20258;-71
2023/01/23 13:03:28;;;;;;;7.13;1.83;;;20.80;83.20;;;;;;5057329;28;20196;-72
2023/01/23 13:05:58;;;;;;;4.70;1.57;;;20.80;83.20;;;;;;5054558;28;20310;-71
2023/01/23 13:08:44;;;;;;;8.13;1.77;;;20.70;83.00;;;;;;5053768;28;20180;-69
2023/01/23 13:14:14;;;;;;;12.20;2.03;;;20.70;82.90;;;;;;5053265;28;20198;-72
2023/01/23 13:16:47;;;;;;;7.97;1.87;;;20.60;83.00;;;;;;5060908;28;20181;-71
2023/01/23 13:22:37;;;;;;;5.67;1.50;;;20.50;83.50;;;;;;5050389;28;20780;-70